Airfield :
LOGIN :

Register | Disclaimer

   EN    FR    IT 

 










Legend :    VFR   Marginal VFR   IFR   Intensive IFR   Very Intensive IFR
Visi :
Ceiling :
>= 8 km
>= 3000ft
5 to 8 km
1000 to 3000 ft
1500m to 5 km
500 to 1000 ft
800 to 1500m
200 to 500 ft
< 800m
< 200 ft
Symbols :   Thunderstorms  Fog  Heavy snow  Heavy precipitations  Wind > 20 kt
SIGMETs :     Misc.  Thunderstorms  Icing  Turbulence  Mountain Waves  Volcanic Ashes






- Airport Elevation : 616 ft
- IATA code : PUF


LFBP - Pau

CURRENT METAR :
  • 021130Z AUTO 07006KT 350V160 CAVOK 26/16 Q1018 TEMPO FEW090CB

EXPIRED METARs :
  • 021100Z AUTO 06006KT 030V110 CAVOK 26/15 Q1018 NOSIG
  • 021030Z AUTO 06005KT 030V090 CAVOK 25/15 Q1018 NOSIG
  • 021000Z AUTO 07006KT 040V110 CAVOK 25/16 Q1018 NOSIG
  • 020930Z AUTO 07007KT 030V130 CAVOK 24/15 Q1018 NOSIG
  • 020900Z AUTO 08007KT 050V120 CAVOK 24/14 Q1018 NOSIG

TAF TAF LFBP
Valid from the 02 at 06:00 until the 03 at 06:00 UTC


020500Z 0206/0306 VRB02KT CAVOK
PROB30
TEMPO 0213/0218 07010KT FEW090CB
FM022000 27005KT 9999 FEW050
PROB40
TEMPO 0220/0224 27015KT
PROB30
TEMPO 0300/0306 4000 BR BKN008



MET'MAP, your aeronautical weather chart ! - Copyright ORBIFLY December 2007 - Disclaimer

ORBIFLY MET'MAP TEAM :

Programming & Development : Alexandra Zaïnal
Original concept : Baudouin d'Aumeries
Technical & hardware support : Manuel Goepfert
Assistance : Marc-Olivier Méhu




SOURCES & CREDITS :

   NOAA